Time;durP1;ratioP1;P1;durP2;ratioP2;P2;SDS_P1;SDS_P2;PMS_P1;PMS_P2;Temp;Humidity;BMP_temperature;BMP_pressure;BME280_temperature;BME280_humidity;BME280_pressure;Samples;Min_cycle;Max_cycle;Signal;HPM_P1;HPM_P2
2023/03/14 00:00:16;;;;;;;5.00;2.20;;;12.30;99.90;;;;;;5035097;28;20466;-76
2023/03/14 00:02:42;;;;;;;4.30;1.80;;;12.30;99.90;;;;;;5017674;28;20406;-76
2023/03/14 00:05:09;;;;;;;3.23;2.10;;;12.40;99.90;;;;;;4984823;28;20454;-76
2023/03/14 00:07:39;;;;;;;4.30;2.33;;;12.40;99.90;;;;;;5014229;28;20432;-75
2023/03/14 00:10:11;;;;;;;3.70;2.10;;;12.30;99.90;;;;;;5032991;28;20492;-76
2023/03/14 00:12:37;;;;;;;4.27;2.20;;;12.30;99.90;;;;;;5009189;28;20424;-76
2023/03/14 00:15:09;;;;;;;3.90;1.90;;;12.30;99.90;;;;;;5017210;28;20425;-76
2023/03/14 00:17:35;;;;;;;3.30;2.10;;;12.30;99.90;;;;;;5028239;28;20462;-75
2023/03/14 00:20:10;;;;;;;7.20;2.40;;;12.30;99.90;;;;;;5029834;28;20543;-76
2023/03/14 00:22:40;;;;;;;5.20;1.80;;;12.30;99.90;;;;;;5017407;28;20401;-76
2023/03/14 00:25:10;;;;;;;5.37;2.07;;;12.30;99.90;;;;;;5001639;28;20514;-76
2023/03/14 00:27:36;;;;;;;4.53;2.30;;;12.30;99.90;;;;;;5004471;28;20859;-76
2023/03/14 00:30:07;;;;;;;6.43;2.00;;;12.30;99.90;;;;;;5013824;28;20452;-76
2023/03/14 00:32:36;;;;;;;6.73;2.53;;;12.30;99.90;;;;;;5034643;28;20426;-76
2023/03/14 00:35:04;;;;;;;4.53;2.00;;;12.20;99.90;;;;;;5000748;28;20438;-76
2023/03/14 00:37:33;;;;;;;10.73;2.10;;;12.30;99.90;;;;;;5000705;28;20956;-76
2023/03/14 00:40:01;;;;;;;6.90;1.70;;;12.30;99.90;;;;;;4991433;28;20468;-77
2023/03/14 00:42:27;;;;;;;3.07;1.67;;;12.30;99.90;;;;;;5047047;28;20445;-77
2023/03/14 00:44:53;;;;;;;7.40;1.57;;;12.20;99.90;;;;;;5017633;28;20538;-76
2023/03/14 00:47:21;;;;;;;3.93;1.63;;;12.20;99.90;;;;;;5050104;28;20420;-77
2023/03/14 00:49:47;;;;;;;4.40;1.50;;;12.20;99.90;;;;;;5020265;28;20812;-77
2023/03/14 00:52:15;;;;;;;3.53;1.10;;;12.20;99.90;;;;;;5020405;28;20816;-77
2023/03/14 00:54:42;;;;;;;5.97;1.33;;;12.10;99.90;;;;;;5034840;28;20440;-77
2023/03/14 00:57:08;;;;;;;1.80;1.20;;;12.10;99.90;;;;;;5000137;28;20828;-77
2023/03/14 00:59:34;;;;;;;1.83;1.00;;;12.10;99.90;;;;;;5035850;28;20463;-75
2023/03/14 01:02:02;;;;;;;3.73;1.30;;;12.10;99.90;;;;;;5049271;28;20830;-76
2023/03/14 01:04:30;;;;;;;3.70;1.10;;;12.10;99.90;;;;;;5034676;28;20484;-77
2023/03/14 01:07:01;;;;;;;6.97;2.03;;;12.10;99.90;;;;;;5001175;28;20977;-77
2023/03/14 01:09:29;;;;;;;3.80;1.20;;;12.10;99.90;;;;;;5007665;28;20456;-77
2023/03/14 01:11:55;;;;;;;2.13;1.20;;;12.10;99.90;;;;;;5039505;28;20457;-77
2023/03/14 01:14:21;;;;;;;5.27;1.50;;;12.00;99.90;;;;;;5049678;28;20435;-76
2023/03/14 01:16:51;;;;;;;4.33;2.10;;;12.00;99.90;;;;;;5008445;28;20209;-77
2023/03/14 01:19:22;;;;;;;6.83;1.83;;;12.00;99.90;;;;;;4995542;28;21022;-76
2023/03/14 01:21:48;;;;;;;4.77;1.83;;;12.00;99.90;;;;;;5053904;28;20915;-77
2023/03/14 01:24:14;;;;;;;3.20;1.30;;;12.00;99.90;;;;;;5035644;28;20419;-76
2023/03/14 01:26:40;;;;;;;5.67;1.53;;;12.00;99.90;;;;;;5020194;28;20468;-76
2023/03/14 01:29:07;;;;;;;5.63;1.70;;;12.00;99.90;;;;;;5026843;28;20906;-77
2023/03/14 01:31:35;;;;;;;4.70;1.50;;;12.00;99.90;;;;;;5020172;28;20469;-77
2023/03/14 01:34:02;;;;;;;5.03;1.57;;;12.00;99.90;;;;;;5021795;28;20474;-77
2023/03/14 01:36:28;;;;;;;4.30;1.80;;;11.90;99.90;;;;;;5000296;28;20817;-76
2023/03/14 01:38:54;;;;;;;4.27;1.30;;;11.90;99.90;;;;;;4999250;28;21028;-77
2023/03/14 01:41:25;;;;;;;4.37;1.23;;;11.90;99.90;;;;;;5015905;28;20598;-77
2023/03/14 01:43:55;;;;;;;5.33;1.70;;;11.90;99.90;;;;;;4984071;28;20407;-77
2023/03/14 01:46:40;;;;;;;3.47;1.40;;;11.90;99.90;;;;;;4996837;28;20437;-77
2023/03/14 01:49:33;;;;;;;1.97;1.10;;;11.90;99.90;;;;;;5005242;28;20454;-75
2023/03/14 01:52:13;;;;;;;7.27;1.50;;;11.90;99.90;;;;;;5035401;28;20405;-77
2023/03/14 01:54:40;;;;;;;6.73;1.40;;;11.90;99.90;;;;;;5026781;28;20429;-77
2023/03/14 01:57:20;;;;;;;4.60;1.30;;;11.90;99.90;;;;;;5032343;28;20392;-77
2023/03/14 02:00:00;;;;;;;2.60;1.20;;;11.90;99.90;;;;;;4999594;28;20990;-76
2023/03/14 02:02:29;;;;;;;5.13;1.40;;;11.90;99.90;;;;;;5038774;28;20450;-76
2023/03/14 02:04:59;;;;;;;5.33;1.70;;;11.80;99.90;;;;;;5019678;28;20431;-77
2023/03/14 02:07:41;;;;;;;3.20;1.20;;;11.80;99.90;;;;;;5019858;28;20403;-76
2023/03/14 02:10:16;;;;;;;4.63;1.40;;;11.80;99.90;;;;;;5018545;28;20504;-75
2023/03/14 02:12:42;;;;;;;3.23;1.37;;;11.80;99.90;;;;;;5016427;28;20992;-77
2023/03/14 02:15:13;;;;;;;3.87;1.40;;;11.80;99.90;;;;;;5015455;28;20421;-76
2023/03/14 02:17:53;;;;;;;3.27;1.17;;;11.80;99.90;;;;;;5010173;28;20438;-77
2023/03/14 02:21:00;;;;;;;2.13;1.40;;;11.80;99.90;;;;;;5033579;28;20956;-77
2023/03/14 02:23:51;;;;;;;3.97;1.37;;;11.80;99.90;;;;;;5015886;28;20444;-76
2023/03/14 02:27:01;;;;;;;4.43;1.43;;;11.80;99.90;;;;;;4999666;28;20421;-76
2023/03/14 02:29:33;;;;;;;3.93;1.67;;;11.80;99.90;;;;;;5015593;28;20546;-77
2023/03/14 02:32:00;;;;;;;3.57;1.40;;;11.80;99.90;;;;;;5041077;28;21032;-77
2023/03/14 02:34:29;;;;;;;5.07;1.50;;;11.80;99.90;;;;;;5016775;28;20481;-77
2023/03/14 02:36:57;;;;;;;4.00;1.20;;;11.80;99.90;;;;;;5015037;28;20433;-76
2023/03/14 02:39:42;;;;;;;6.67;1.70;;;11.80;99.90;;;;;;5015197;28;20546;-77
2023/03/14 02:42:12;;;;;;;8.30;1.87;;;11.80;99.90;;;;;;5014796;28;20449;-77
2023/03/14 02:45:10;;;;;;;3.90;1.80;;;11.80;99.90;;;;;;4999366;28;20740;-77
2023/03/14 02:48:06;;;;;;;2.50;1.40;;;11.80;99.90;;;;;;5018253;28;20775;-77
2023/03/14 02:50:37;;;;;;;5.60;1.93;;;11.80;99.90;;;;;;5002157;28;20814;-76
2023/03/14 02:53:03;;;;;;;4.57;2.17;;;11.80;99.90;;;;;;5018216;28;20525;-77
2023/03/14 02:55:32;;;;;;;6.43;2.03;;;11.80;99.90;;;;;;4995730;28;20430;-77
2023/03/14 02:58:04;;;;;;;3.00;1.30;;;11.80;99.90;;;;;;4979629;28;20419;-77
2023/03/14 03:00:33;;;;;;;5.23;1.40;;;11.80;99.90;;;;;;5026849;28;20453;-75
2023/03/14 03:03:01;;;;;;;5.83;2.33;;;11.80;99.90;;;;;;5049102;28;20511;-77
2023/03/14 03:05:27;;;;;;;6.47;1.57;;;11.80;99.90;;;;;;5015558;28;20510;-77
2023/03/14 03:07:53;;;;;;;3.33;1.40;;;11.70;99.90;;;;;;5015629;28;20957;-77
2023/03/14 03:10:23;;;;;;;5.13;1.70;;;11.70;99.90;;;;;;5031594;28;20450;-77
2023/03/14 03:12:51;;;;;;;4.33;1.50;;;11.70;99.90;;;;;;5029494;28;20448;-77
2023/03/14 03:15:17;;;;;;;4.43;1.57;;;11.70;99.90;;;;;;5014844;28;20438;-77
2023/03/14 03:17:45;;;;;;;4.37;1.60;;;11.70;99.90;;;;;;5015012;28;20441;-77
2023/03/14 03:20:12;;;;;;;4.87;1.43;;;11.70;99.90;;;;;;5016854;28;20474;-77
2023/03/14 03:22:41;;;;;;;8.50;1.80;;;11.70;99.90;;;;;;5018995;28;20514;-77
2023/03/14 03:25:09;;;;;;;6.30;1.80;;;11.70;99.90;;;;;;5021270;28;20667;-77
2023/03/14 03:27:40;;;;;;;3.67;1.73;;;11.70;99.90;;;;;;5022553;28;20464;-77
2023/03/14 03:30:09;;;;;;;4.60;1.60;;;11.70;99.90;;;;;;5021380;28;20456;-77
2023/03/14 03:32:43;;;;;;;3.73;1.80;;;11.70;99.90;;;;;;5021248;28;20480;-77
2023/03/14 03:35:11;;;;;;;5.10;2.20;;;11.70;99.90;;;;;;5035881;28;20424;-77
2023/03/14 03:37:39;;;;;;;4.80;1.40;;;11.70;99.90;;;;;;5001715;28;20462;-77
2023/03/14 03:40:13;;;;;;;3.57;1.40;;;11.70;99.90;;;;;;5022625;28;20467;-77
2023/03/14 03:42:41;;;;;;;4.90;1.80;;;11.70;99.90;;;;;;5027864;28;20451;-77
2023/03/14 03:45:09;;;;;;;9.40;1.47;;;11.70;99.90;;;;;;5038181;28;20423;-77
2023/03/14 03:47:43;;;;;;;3.73;1.67;;;11.70;99.90;;;;;;5038052;28;20412;-77
2023/03/14 03:50:13;;;;;;;4.83;1.40;;;11.70;99.90;;;;;;5005579;28;20477;-77
2023/03/14 03:52:41;;;;;;;3.07;1.57;;;11.70;99.90;;;;;;4997677;28;20614;-77
2023/03/14 03:55:07;;;;;;;5.60;1.23;;;11.70;99.90;;;;;;5018512;28;20530;-77
2023/03/14 03:57:34;;;;;;;5.70;1.63;;;11.60;99.90;;;;;;5019046;28;20420;-77
2023/03/14 04:00:00;;;;;;;3.00;1.13;;;11.60;99.90;;;;;;5036974;28;20468;-77
2023/03/14 04:02:29;;;;;;;3.43;1.53;;;11.60;99.90;;;;;;4992196;28;20863;-77
2023/03/14 04:04:55;;;;;;;4.80;1.60;;;11.60;99.90;;;;;;5032457;28;20438;-77
2023/03/14 04:07:29;;;;;;;2.00;1.53;;;11.60;99.90;;;;;;5035191;28;20420;-77
2023/03/14 04:09:55;;;;;;;5.93;1.50;;;11.60;99.90;;;;;;5037499;28;20436;-77
2023/03/14 04:12:36;;;;;;;3.40;1.13;;;11.60;99.90;;;;;;5024502;28;20444;-77
2023/03/14 04:15:16;;;;;;;4.93;1.50;;;11.60;99.90;;;;;;5004048;28;20977;-77
2023/03/14 04:17:46;;;;;;;1.33;0.90;;;11.60;99.90;;;;;;5002092;28;20452;-77
2023/03/14 04:20:16;;;;;;;2.97;1.20;;;11.50;99.90;;;;;;5013874;28;20556;-77
2023/03/14 04:22:44;;;;;;;2.67;1.10;;;11.50;99.90;;;;;;5026838;28;20427;-77
2023/03/14 04:25:10;;;;;;;1.93;0.87;;;11.50;99.90;;;;;;5006517;28;21030;-77
2023/03/14 04:27:44;;;;;;;4.03;1.00;;;11.50;99.90;;;;;;5003125;28;20396;-77
2023/03/14 04:30:18;;;;;;;1.27;0.80;;;11.50;99.90;;;;;;5048664;28;20457;-77
2023/03/14 04:32:49;;;;;;;1.37;0.80;;;11.50;99.90;;;;;;5040059;28;20424;-77
2023/03/14 04:35:16;;;;;;;1.77;0.80;;;11.40;99.90;;;;;;5031227;28;20784;-77
2023/03/14 04:37:43;;;;;;;2.30;0.87;;;11.40;99.90;;;;;;5031911;28;20534;-76
2023/03/14 04:40:10;;;;;;;1.67;0.80;;;11.40;99.90;;;;;;5038761;28;20466;-77
2023/03/14 04:42:42;;;;;;;1.20;0.80;;;11.40;99.90;;;;;;5018897;28;20573;-78
2023/03/14 04:45:09;;;;;;;1.00;0.77;;;11.30;99.90;;;;;;5033117;28;20447;-77
2023/03/14 04:47:39;;;;;;;1.57;0.67;;;11.40;99.90;;;;;;5006030;28;20425;-77
2023/03/14 04:50:06;;;;;;;1.90;0.83;;;11.30;99.90;;;;;;4984863;28;20443;-77
2023/03/14 04:52:32;;;;;;;2.03;0.60;;;11.30;99.90;;;;;;5024585;28;20448;-77
2023/03/14 04:55:00;;;;;;;0.90;0.70;;;11.30;99.90;;;;;;5005641;28;20431;-77
2023/03/14 04:57:27;;;;;;;1.43;0.97;;;11.30;99.90;;;;;;5037490;28;20440;-78
2023/03/14 04:59:54;;;;;;;1.37;0.80;;;11.30;99.90;;;;;;5020355;28;20473;-77
2023/03/14 05:02:49;;;;;;;1.53;0.80;;;11.30;99.90;;;;;;4994456;28;20463;-77
2023/03/14 05:05:21;;;;;;;2.60;0.80;;;11.30;99.90;;;;;;5034636;28;20437;-77
2023/03/14 05:08:13;;;;;;;1.20;0.73;;;11.30;99.90;;;;;;4969006;28;21037;-77
2023/03/14 05:11:04;;;;;;;0.90;0.70;;;11.30;99.90;;;;;;5022126;28;20428;-76
2023/03/14 05:13:55;;;;;;;1.40;0.83;;;11.20;99.90;;;;;;5039650;28;20918;-77
2023/03/14 05:16:33;;;;;;;2.30;0.80;;;11.30;99.90;;;;;;5020362;28;20464;-77
2023/03/14 05:19:04;;;;;;;3.27;0.80;;;11.30;99.90;;;;;;5023058;28;20879;-77
2023/03/14 05:21:36;;;;;;;1.87;0.90;;;11.30;99.90;;;;;;5053750;28;20419;-77
2023/03/14 05:24:15;;;;;;;1.40;0.60;;;11.30;99.90;;;;;;5017543;28;20448;-77
2023/03/14 05:26:57;;;;;;;2.17;0.90;;;11.30;99.90;;;;;;5001212;28;20479;-77
2023/03/14 05:29:58;;;;;;;1.10;0.80;;;11.30;99.90;;;;;;5014673;28;20467;-77
2023/03/14 05:32:59;;;;;;;1.00;0.60;;;11.30;99.90;;;;;;4977038;28;20433;-76
2023/03/14 05:35:50;;;;;;;4.33;1.03;;;11.30;99.90;;;;;;5014080;28;20464;-76
2023/03/14 05:38:46;;;;;;;3.10;0.77;;;11.30;99.90;;;;;;5006931;28;20468;-78
2023/03/14 05:41:31;;;;;;;2.27;0.90;;;11.30;99.90;;;;;;5040392;28;20918;-78
2023/03/14 05:44:18;;;;;;;1.47;1.00;;;11.30;99.90;;;;;;5006765;28;20413;-77
2023/03/14 05:47:10;;;;;;;1.17;0.70;;;11.30;99.90;;;;;;4985322;28;20430;-78
2023/03/14 05:49:48;;;;;;;1.40;0.87;;;11.30;99.90;;;;;;5020941;28;20564;-78
2023/03/14 05:52:31;;;;;;;1.30;0.90;;;11.30;99.90;;;;;;5038769;28;20398;-78
2023/03/14 05:55:22;;;;;;;2.50;0.90;;;11.30;99.90;;;;;;5009460;28;20431;-78
2023/03/14 05:58:07;;;;;;;2.10;0.97;;;11.30;99.90;;;;;;5020989;28;20725;-78
2023/03/14 06:00:45;;;;;;;1.00;0.80;;;11.30;99.90;;;;;;5008579;28;20456;-78
2023/03/14 06:03:28;;;;;;;1.27;0.70;;;11.30;99.90;;;;;;5000309;28;20433;-77
2023/03/14 06:05:54;;;;;;;1.13;0.73;;;11.30;99.90;;;;;;5034293;28;20893;-78
2023/03/14 06:08:25;;;;;;;1.37;0.70;;;11.20;99.90;;;;;;5016513;28;20506;-78
2023/03/14 06:10:52;;;;;;;1.60;1.00;;;11.20;99.90;;;;;;5022518;28;20417;-77
2023/03/14 06:13:23;;;;;;;2.17;0.80;;;11.20;99.90;;;;;;4999584;28;20443;-77
2023/03/14 06:15:51;;;;;;;1.50;0.90;;;11.20;99.90;;;;;;5027665;28;20450;-78
2023/03/14 06:18:17;;;;;;;2.50;0.90;;;11.20;99.90;;;;;;5048334;28;20451;-78
2023/03/14 06:20:43;;;;;;;1.07;0.77;;;11.20;99.90;;;;;;5018512;28;20475;-78
2023/03/14 06:23:13;;;;;;;1.47;0.80;;;11.30;99.90;;;;;;5001224;28;20454;-77
2023/03/14 06:25:39;;;;;;;1.47;0.87;;;11.20;99.90;;;;;;5017650;28;20436;-78
2023/03/14 06:28:07;;;;;;;1.80;0.80;;;11.20;99.90;;;;;;5023028;28;20973;-77
2023/03/14 06:30:38;;;;;;;2.03;0.70;;;11.20;99.90;;;;;;5000995;28;20420;-78
2023/03/14 06:33:05;;;;;;;1.00;0.90;;;11.20;99.90;;;;;;5001500;28;20752;-78
2023/03/14 06:35:30;;;;;;;0.90;0.73;;;11.20;99.90;;;;;;5026932;28;20435;-78
2023/03/14 06:38:01;;;;;;;0.70;0.57;;;11.20;99.90;;;;;;5014119;28;20781;-78
2023/03/14 06:40:30;;;;;;;0.80;0.73;;;11.20;99.90;;;;;;5025560;28;20979;-77
2023/03/14 06:43:06;;;;;;;1.23;0.67;;;11.20;99.90;;;;;;5020173;28;20448;-77
2023/03/14 06:45:33;;;;;;;1.10;0.90;;;11.20;99.90;;;;;;4998858;28;20429;-77
2023/03/14 06:48:02;;;;;;;1.10;1.00;;;11.20;99.90;;;;;;5014419;28;20444;-78
2023/03/14 06:50:51;;;;;;;0.97;0.60;;;11.20;99.90;;;;;;5014376;28;20409;-77
2023/03/14 06:53:19;;;;;;;0.90;0.70;;;11.20;99.90;;;;;;5013551;28;20457;-77
2023/03/14 06:55:46;;;;;;;1.30;1.00;;;11.20;99.90;;;;;;4986223;28;20944;-77
2023/03/14 06:58:16;;;;;;;3.30;1.50;;;11.20;99.90;;;;;;5036429;28;20398;-78
2023/03/14 07:00:45;;;;;;;2.70;1.67;;;11.20;99.90;;;;;;5001627;28;20812;-78
2023/03/14 07:03:16;;;;;;;3.93;2.50;;;11.20;99.90;;;;;;4989168;28;20431;-78
2023/03/14 07:05:46;;;;;;;3.13;1.60;;;11.20;99.90;;;;;;5003755;28;20453;-78
2023/03/14 07:08:12;;;;;;;2.40;1.90;;;11.20;99.90;;;;;;5017564;28;20400;-76
2023/03/14 07:10:38;;;;;;;1.77;1.17;;;11.20;99.90;;;;;;5015233;28;20987;-76
2023/03/14 07:13:08;;;;;;;4.40;1.53;;;11.20;99.90;;;;;;5013539;28;20493;-77
2023/03/14 07:15:43;;;;;;;3.43;1.83;;;11.20;99.90;;;;;;4999364;28;20753;-77
2023/03/14 07:18:09;;;;;;;2.87;1.60;;;11.20;99.90;;;;;;4998766;28;20807;-76
2023/03/14 07:20:38;;;;;;;1.97;1.23;;;11.20;99.90;;;;;;4998575;28;20451;-76
2023/03/14 07:23:05;;;;;;;2.07;1.23;;;11.20;99.90;;;;;;5014572;28;20843;-76
2023/03/14 07:25:43;;;;;;;1.33;1.23;;;11.20;99.90;;;;;;5014906;28;20447;-77
2023/03/14 07:28:11;;;;;;;2.40;1.20;;;11.20;99.90;;;;;;5011329;28;20440;-77
2023/03/14 07:30:42;;;;;;;1.63;0.93;;;11.20;99.90;;;;;;5011418;28;20580;-75
2023/03/14 07:33:16;;;;;;;1.67;1.30;;;11.20;99.90;;;;;;5022220;28;20420;-77
2023/03/14 07:35:43;;;;;;;2.10;1.40;;;11.20;99.90;;;;;;4998991;28;20407;-76
2023/03/14 07:38:14;;;;;;;1.80;1.40;;;11.20;99.90;;;;;;4981853;28;21036;-76
2023/03/14 07:41:02;;;;;;;1.40;1.30;;;11.20;99.90;;;;;;5000109;28;20439;-76
2023/03/14 07:43:33;;;;;;;2.60;1.40;;;11.20;99.90;;;;;;5014056;28;20546;-76
2023/03/14 07:46:03;;;;;;;1.77;1.50;;;11.20;99.90;;;;;;5014251;28;20476;-76
2023/03/14 07:48:33;;;;;;;1.80;1.37;;;11.20;99.90;;;;;;5014649;28;20861;-76
2023/03/14 07:50:59;;;;;;;1.37;1.20;;;11.20;99.90;;;;;;5014655;28;20427;-76
2023/03/14 07:53:26;;;;;;;2.03;1.20;;;11.20;99.90;;;;;;5030959;28;20897;-76
2023/03/14 07:55:56;;;;;;;1.50;1.30;;;11.20;99.90;;;;;;5029729;28;20514;-76
2023/03/14 07:58:25;;;;;;;1.40;1.30;;;11.30;99.90;;;;;;5032071;28;20885;-76
2023/03/14 08:00:52;;;;;;;3.60;1.30;;;11.20;99.90;;;;;;5014425;28;20420;-76
2023/03/14 08:03:18;;;;;;;1.20;1.10;;;11.20;99.90;;;;;;4994336;28;20436;-76
2023/03/14 08:05:48;;;;;;;1.80;1.30;;;11.20;99.90;;;;;;5011425;28;20420;-76
2023/03/14 08:08:14;;;;;;;1.30;1.10;;;11.20;99.90;;;;;;4996328;28;20456;-76
2023/03/14 08:10:39;;;;;;;1.23;1.00;;;11.30;99.90;;;;;;5014105;28;20536;-76
2023/03/14 08:13:08;;;;;;;4.03;1.10;;;11.20;99.90;;;;;;4996102;28;20612;-76
2023/03/14 08:15:39;;;;;;;0.93;0.80;;;11.20;99.90;;;;;;5031801;28;20410;-76
2023/03/14 08:18:05;;;;;;;1.00;0.90;;;11.20;99.90;;;;;;4996986;28;20446;-76
2023/03/14 08:20:34;;;;;;;1.20;0.83;;;11.20;99.90;;;;;;5013592;28;20510;-76
2023/03/14 08:23:01;;;;;;;2.30;0.97;;;11.20;99.90;;;;;;5030222;28;20450;-76
2023/03/14 08:25:30;;;;;;;1.83;1.10;;;11.30;99.90;;;;;;5014601;28;20425;-76
2023/03/14 08:27:58;;;;;;;1.00;0.80;;;11.30;99.90;;;;;;5031125;28;20487;-76
2023/03/14 08:30:32;;;;;;;1.00;0.90;;;11.30;99.90;;;;;;4997426;28;20432;-75
2023/03/14 08:32:58;;;;;;;1.20;1.10;;;11.30;99.90;;;;;;4997111;28;20898;-76
2023/03/14 08:35:27;;;;;;;2.70;1.00;;;11.30;99.90;;;;;;5013563;28;20893;-76
2023/03/14 08:37:55;;;;;;;1.20;1.10;;;11.30;99.90;;;;;;5013764;28;20455;-76
2023/03/14 08:40:21;;;;;;;1.10;1.00;;;11.30;99.90;;;;;;5031173;28;20514;-76
2023/03/14 08:42:49;;;;;;;2.00;1.40;;;11.30;99.90;;;;;;5013625;28;20922;-76
2023/03/14 08:48:01;;;;;;;1.20;1.10;;;11.30;99.90;;;;;;5020408;28;20874;-72
2023/03/14 08:50:27;;;;;;;1.27;1.17;;;11.30;99.90;;;;;;4992962;28;20527;-72
2023/03/14 08:52:59;;;;;;;1.67;1.20;;;11.30;99.90;;;;;;5002853;28;20530;-72
2023/03/14 08:55:30;;;;;;;1.20;1.10;;;11.30;99.90;;;;;;4977413;28;20473;-72
2023/03/14 08:58:03;;;;;;;2.37;1.50;;;11.30;99.90;;;;;;4993775;28;20935;-72
2023/03/14 09:00:31;;;;;;;1.67;1.27;;;11.30;99.90;;;;;;4996379;28;20475;-72
2023/03/14 09:02:59;;;;;;;1.20;1.10;;;11.30;99.90;;;;;;5013509;28;20405;-72
2023/03/14 09:05:28;;;;;;;1.60;1.27;;;11.30;99.90;;;;;;5013105;28;20417;-72
2023/03/14 09:07:54;;;;;;;2.10;1.30;;;11.30;99.90;;;;;;5011347;28;20207;-72
2023/03/14 09:10:22;;;;;;;1.73;1.00;;;11.30;99.90;;;;;;5030804;28;20443;-72
2023/03/14 09:12:50;;;;;;;1.40;1.17;;;11.30;99.90;;;;;;4994919;28;20426;-72
2023/03/14 09:15:20;;;;;;;1.30;1.20;;;11.30;99.90;;;;;;5013219;28;20427;-72
2023/03/14 09:17:49;;;;;;;2.10;1.37;;;11.30;99.90;;;;;;5029371;28;20496;-73
2023/03/14 09:20:16;;;;;;;2.43;1.27;;;11.30;99.90;;;;;;4996190;28;20855;-72
2023/03/14 09:22:44;;;;;;;1.80;1.20;;;11.30;99.90;;;;;;5011614;28;20439;-72
2023/03/14 09:25:13;;;;;;;1.97;1.17;;;11.30;99.90;;;;;;4992096;28;20758;-72
2023/03/14 09:27:41;;;;;;;1.67;1.03;;;11.30;99.90;;;;;;4977056;28;20441;-72
2023/03/14 09:30:08;;;;;;;1.00;0.90;;;11.30;99.90;;;;;;4976886;28;20455;-72
2023/03/14 09:32:34;;;;;;;3.17;0.80;;;11.30;99.90;;;;;;4992590;28;20476;-72
2023/03/14 09:35:00;;;;;;;1.30;1.00;;;11.30;99.90;;;;;;4993038;28;20499;-72
2023/03/14 09:37:31;;;;;;;1.63;0.67;;;11.20;99.90;;;;;;5010661;28;20469;-72
2023/03/14 09:40:08;;;;;;;2.70;0.90;;;11.20;99.90;;;;;;4976669;28;20491;-72
2023/03/14 09:42:41;;;;;;;2.40;1.00;;;11.20;99.90;;;;;;4992949;28;20446;-72
2023/03/14 09:45:32;;;;;;;1.60;0.80;;;11.20;99.90;;;;;;4976867;28;20430;-72
2023/03/14 09:47:59;;;;;;;0.80;0.63;;;11.10;99.90;;;;;;5025282;28;20435;-72
2023/03/14 09:50:28;;;;;;;1.50;1.00;;;11.10;99.90;;;;;;5011986;28;20446;-72
2023/03/14 09:53:03;;;;;;;1.30;0.93;;;11.10;99.90;;;;;;5029820;28;20416;-72
2023/03/14 09:55:34;;;;;;;2.53;0.93;;;11.10;99.90;;;;;;4980183;28;20926;-72
2023/03/14 09:58:11;;;;;;;1.20;1.10;;;11.10;99.90;;;;;;4992476;28;20438;-73
2023/03/14 10:00:42;;;;;;;1.97;1.20;;;11.10;99.90;;;;;;5009578;28;20490;-72
2023/03/14 10:03:28;;;;;;;2.70;1.23;;;11.00;99.90;;;;;;4992439;28;20411;-72
2023/03/14 10:05:57;;;;;;;1.50;1.40;;;11.00;99.90;;;;;;4993487;28;20570;-72
2023/03/14 10:08:27;;;;;;;1.50;1.10;;;11.00;99.90;;;;;;4992729;28;20456;-72
2023/03/14 10:10:54;;;;;;;1.50;1.40;;;11.00;99.90;;;;;;4960093;28;20878;-72
2023/03/14 10:13:29;;;;;;;1.40;1.30;;;11.00;99.90;;;;;;4990146;28;20423;-72
2023/03/14 10:16:07;;;;;;;2.30;1.43;;;11.00;99.90;;;;;;4975967;28;20427;-72
2023/03/14 10:18:39;;;;;;;1.70;1.40;;;11.00;99.90;;;;;;4992239;28;20463;-72
2023/03/14 10:21:08;;;;;;;1.97;1.63;;;11.00;99.90;;;;;;4992091;28;20429;-72
2023/03/14 10:23:40;;;;;;;2.13;1.70;;;11.00;99.90;;;;;;5004032;28;21017;-72
2023/03/14 10:26:16;;;;;;;2.20;1.40;;;11.00;99.90;;;;;;5011671;28;20407;-72
2023/03/14 10:28:46;;;;;;;2.50;1.80;;;10.90;99.90;;;;;;5011458;28;20438;-72
2023/03/14 10:31:13;;;;;;;2.63;1.40;;;10.90;99.90;;;;;;5011717;28;20914;-72
2023/03/14 10:33:39;;;;;;;2.07;1.40;;;10.90;99.90;;;;;;5011850;28;20423;-72
2023/03/14 10:36:25;;;;;;;1.67;1.57;;;10.90;99.90;;;;;;5011334;28;20407;-72
2023/03/14 10:39:15;;;;;;;2.07;1.70;;;10.90;99.90;;;;;;4995300;28;21026;-72
2023/03/14 10:41:48;;;;;;;2.90;2.27;;;10.90;99.90;;;;;;5011545;28;20490;-72
2023/03/14 10:44:16;;;;;;;3.40;2.10;;;10.90;99.90;;;;;;4991284;28;20444;-72
2023/03/14 10:46:42;;;;;;;6.00;1.97;;;10.90;99.90;;;;;;4996643;28;20482;-72
2023/03/14 10:49:29;;;;;;;2.90;2.10;;;10.90;99.90;;;;;;5011900;28;20447;-72
2023/03/14 10:52:00;;;;;;;3.03;2.27;;;10.90;99.90;;;;;;5029141;28;20416;-72
2023/03/14 10:54:30;;;;;;;3.70;2.47;;;10.90;99.90;;;;;;5011807;28;20446;-72
2023/03/14 10:56:58;;;;;;;3.60;2.67;;;10.90;99.90;;;;;;4994407;28;20533;-72
2023/03/14 10:59:27;;;;;;;4.77;2.20;;;10.90;99.90;;;;;;5028800;28;21118;-72
2023/03/14 11:02:01;;;;;;;3.70;2.20;;;10.90;99.90;;;;;;5011502;28;20411;-72
2023/03/14 11:05:07;;;;;;;4.37;2.20;;;10.90;99.90;;;;;;5011634;28;20511;-72
2023/03/14 11:07:44;;;;;;;4.63;2.33;;;10.90;99.90;;;;;;5011819;28;20416;-72
2023/03/14 11:10:37;;;;;;;6.20;2.30;;;10.90;99.90;;;;;;4992454;28;20527;-72
2023/03/14 11:13:20;;;;;;;2.83;2.00;;;10.80;99.90;;;;;;5010218;28;20812;-72
2023/03/14 11:16:00;;;;;;;3.70;2.40;;;10.80;99.90;;;;;;5031282;28;20415;-72
2023/03/14 11:18:54;;;;;;;6.63;2.03;;;10.90;99.90;;;;;;4994079;28;20444;-71
2023/03/14 11:21:48;;;;;;;2.00;1.80;;;10.80;99.90;;;;;;4994628;28;20416;-72
2023/03/14 11:24:22;;;;;;;5.37;1.87;;;10.80;99.90;;;;;;5011430;28;20428;-72
2023/03/14 11:27:05;;;;;;;3.30;1.80;;;10.80;99.90;;;;;;4997148;28;20431;-72
2023/03/14 11:29:51;;;;;;;5.13;1.93;;;10.80;99.90;;;;;;5013644;28;20435;-72
2023/03/14 11:32:20;;;;;;;3.50;1.70;;;10.80;99.90;;;;;;5013456;28;20451;-72
2023/03/14 11:34:58;;;;;;;4.23;1.60;;;10.80;99.90;;;;;;4997260;28;20437;-72
2023/03/14 11:37:31;;;;;;;2.87;1.90;;;10.80;99.90;;;;;;4997356;28;20545;-72
2023/03/14 11:40:20;;;;;;;3.07;1.47;;;10.80;99.90;;;;;;5013391;28;20467;-72
2023/03/14 11:43:20;;;;;;;3.83;1.40;;;10.80;99.90;;;;;;5034760;28;20437;-72
2023/03/14 11:45:54;;;;;;;2.53;1.40;;;10.80;99.90;;;;;;4985320;28;20420;-72
2023/03/14 11:48:38;;;;;;;3.33;1.90;;;10.80;99.90;;;;;;5015097;28;20444;-72
2023/03/14 11:51:23;;;;;;;1.90;1.20;;;10.70;99.90;;;;;;4981694;28;20456;-72
2023/03/14 11:54:06;;;;;;;2.20;1.30;;;10.70;99.90;;;;;;4997580;28;20402;-72
2023/03/14 11:56:42;;;;;;;3.97;1.53;;;10.70;99.90;;;;;;5033376;28;20443;-72
2023/03/14 11:59:27;;;;;;;2.27;1.43;;;10.70;99.90;;;;;;5000452;28;20458;-72
2023/03/14 12:02:06;;;;;;;4.17;1.60;;;10.70;99.90;;;;;;4984157;28;20519;-72
2023/03/14 12:04:51;;;;;;;1.77;1.30;;;10.70;99.90;;;;;;5000717;28;20750;-72
2023/03/14 12:07:50;;;;;;;1.63;1.00;;;10.80;99.90;;;;;;5034432;28;20410;-72
2023/03/14 12:10:21;;;;;;;2.37;1.27;;;10.70;99.90;;;;;;4998815;28;20817;-72
2023/03/14 12:12:50;;;;;;;6.13;2.17;;;10.70;99.90;;;;;;5034224;28;20414;-72
2023/03/14 12:15:21;;;;;;;3.10;1.77;;;10.70;99.90;;;;;;5000420;28;20462;-72
2023/03/14 12:17:56;;;;;;;1.97;1.57;;;10.70;99.90;;;;;;5033591;28;20470;-72
2023/03/14 12:20:26;;;;;;;3.83;1.90;;;10.70;99.90;;;;;;5016267;28;20447;-72
2023/03/14 12:22:53;;;;;;;2.50;1.63;;;10.70;99.90;;;;;;5016504;28;20440;-72
2023/03/14 12:25:28;;;;;;;5.30;1.73;;;10.70;99.90;;;;;;5034067;28;20457;-72
2023/03/14 12:27:56;;;;;;;3.73;1.50;;;10.70;99.90;;;;;;5015739;28;20978;-72
2023/03/14 12:30:29;;;;;;;8.00;2.20;;;10.70;99.90;;;;;;5016529;28;20756;-72
2023/03/14 12:33:29;;;;;;;4.03;1.70;;;10.70;99.90;;;;;;5016597;28;20473;-72
2023/03/14 12:36:04;;;;;;;3.87;2.00;;;10.80;99.90;;;;;;5002604;28;20962;-72
2023/03/14 12:38:36;;;;;;;3.43;1.93;;;10.80;99.90;;;;;;4996017;28;20464;-72
2023/03/14 12:41:08;;;;;;;2.73;1.50;;;10.80;99.90;;;;;;4996423;28;20405;-72
2023/03/14 12:43:35;;;;;;;4.60;1.60;;;10.80;99.90;;;;;;4996313;28;20990;-72
2023/03/14 12:46:09;;;;;;;4.97;1.73;;;10.80;99.90;;;;;;4980306;28;20865;-72
2023/03/14 12:48:38;;;;;;;4.03;1.80;;;10.80;99.90;;;;;;4996363;28;20462;-72
2023/03/14 12:51:12;;;;;;;4.83;1.50;;;10.80;99.90;;;;;;4980064;28;20800;-72
2023/03/14 12:53:44;;;;;;;3.13;1.57;;;10.70;99.90;;;;;;4996110;28;20447;-72
2023/03/14 12:56:26;;;;;;;5.00;2.13;;;10.70;99.90;;;;;;4983122;28;20442;-72
2023/03/14 12:59:20;;;;;;;5.63;2.33;;;10.70;99.90;;;;;;5033241;28;21029;-72
2023/03/14 13:01:58;;;;;;;4.23;1.87;;;10.70;99.90;;;;;;5015828;28;20497;-71
2023/03/14 13:04:35;;;;;;;8.53;2.37;;;10.70;99.90;;;;;;4998984;28;20428;-71
2023/03/14 13:07:04;;;;;;;7.53;1.83;;;10.80;99.90;;;;;;5021645;28;20876;-71
2023/03/14 13:09:32;;;;;;;4.73;2.40;;;10.70;99.90;;;;;;4999609;28;20476;-71
2023/03/14 13:12:14;;;;;;;6.90;2.13;;;10.70;99.90;;;;;;5015598;28;20827;-72
2023/03/14 13:14:49;;;;;;;8.50;2.13;;;10.70;99.90;;;;;;5029809;28;20458;-72
2023/03/14 13:17:32;;;;;;;3.90;1.87;;;10.70;99.90;;;;;;5029118;28;20447;-72
2023/03/14 13:20:04;;;;;;;13.53;2.10;;;10.80;99.90;;;;;;5013159;28;20467;-72